sensor_id;sensor_type;location;lat;lon;timestamp;pressure;altitude;pressure_sealevel;temperature;humidity
13594;BME280;6449;47.666;9.160;2024-02-28T00:01:02;96843.31;;;8.64;100.00
13594;BME280;6449;47.666;9.160;2024-02-28T00:05:57;96850.22;;;8.65;100.00
13594;BME280;6449;47.666;9.160;2024-02-28T00:10:50;96849.50;;;8.63;100.00
13594;BME280;6449;47.666;9.160;2024-02-28T00:15:45;96856.69;;;8.60;100.00
13594;BME280;6449;47.666;9.160;2024-02-28T00:20:39;96856.69;;;8.60;100.00
13594;BME280;6449;47.666;9.160;2024-02-28T00:25:32;96862.94;;;8.57;100.00
13594;BME280;6449;47.666;9.160;2024-02-28T00:30:27;96863.06;;;8.56;100.00
13594;BME280;6449;47.666;9.160;2024-02-28T00:35:22;96862.34;;;8.54;100.00
13594;BME280;6449;47.666;9.160;2024-02-28T00:40:15;96869.22;;;8.55;100.00
13594;BME280;6449;47.666;9.160;2024-02-28T00:45:09;96877.38;;;8.50;100.00
13594;BME280;6449;47.666;9.160;2024-02-28T00:50:03;96887.72;;;8.52;100.00
13594;BME280;6449;47.666;9.160;2024-02-28T00:54:58;96887.72;;;8.52;100.00
13594;BME280;6449;47.666;9.160;2024-02-28T00:59:52;96888.47;;;8.54;100.00
13594;BME280;6449;47.666;9.160;2024-02-28T01:04:46;96894.94;;;8.48;100.00
13594;BME280;6449;47.666;9.160;2024-02-28T01:09:40;96902.88;;;8.47;100.00
13594;BME280;6449;47.666;9.160;2024-02-28T01:14:34;96897.88;;;8.44;100.00
13594;BME280;6449;47.666;9.160;2024-02-28T01:19:28;96909.34;;;8.41;100.00
13594;BME280;6449;47.666;9.160;2024-02-28T01:24:21;96913.31;;;8.47;100.00
13594;BME280;6449;47.666;9.160;2024-02-28T01:29:14;96903.81;;;8.46;100.00
13594;BME280;6449;47.666;9.160;2024-02-28T01:34:09;96914.50;;;8.43;100.00
13594;BME280;6449;47.666;9.160;2024-02-28T01:39:03;96918.97;;;8.40;100.00
13594;BME280;6449;47.666;9.160;2024-02-28T01:43:56;96913.72;;;8.40;100.00
13594;BME280;6449;47.666;9.160;2024-02-28T01:48:49;96917.09;;;8.43;100.00
13594;BME280;6449;47.666;9.160;2024-02-28T01:53:44;96910.22;;;8.42;100.00
13594;BME280;6449;47.666;9.160;2024-02-28T01:58:39;96918.88;;;8.42;100.00
13594;BME280;6449;47.666;9.160;2024-02-28T02:03:34;96923.28;;;8.42;100.00
13594;BME280;6449;47.666;9.160;2024-02-28T02:08:27;96924.94;;;8.43;100.00
13594;BME280;6449;47.666;9.160;2024-02-28T02:13:23;96928.50;;;8.42;100.00
13594;BME280;6449;47.666;9.160;2024-02-28T02:18:16;96923.25;;;8.67;100.00
13594;BME280;6449;47.666;9.160;2024-02-28T02:23:12;96924.00;;;8.44;100.00
13594;BME280;6449;47.666;9.160;2024-02-28T02:28:07;96925.78;;;8.43;100.00
13594;BME280;6449;47.666;9.160;2024-02-28T02:33:01;96935.16;;;8.46;100.00
13594;BME280;6449;47.666;9.160;2024-02-28T02:37:55;96940.31;;;8.47;100.00
13594;BME280;6449;47.666;9.160;2024-02-28T02:42:51;96941.13;;;8.48;100.00
13594;BME280;6449;47.666;9.160;2024-02-28T02:47:45;96938.13;;;8.54;100.00
13594;BME280;6449;47.666;9.160;2024-02-28T02:52:38;96942.16;;;8.45;100.00
13594;BME280;6449;47.666;9.160;2024-02-28T02:57:32;96940.31;;;8.47;100.00
13594;BME280;6449;47.666;9.160;2024-02-28T03:02:27;96936.34;;;8.54;100.00
13594;BME280;6449;47.666;9.160;2024-02-28T03:07:20;96935.09;;;8.47;100.00
13594;BME280;6449;47.666;9.160;2024-02-28T03:12:14;96937.34;;;8.52;100.00
13594;BME280;6449;47.666;9.160;2024-02-28T03:17:08;96937.78;;;8.46;100.00
13594;BME280;6449;47.666;9.160;2024-02-28T03:22:02;96938.84;;;8.43;100.00
13594;BME280;6449;47.666;9.160;2024-02-28T03:26:56;96948.06;;;8.34;100.00
13594;BME280;6449;47.666;9.160;2024-02-28T03:31:49;96961.06;;;8.36;100.00
13594;BME280;6449;47.666;9.160;2024-02-28T03:36:43;96962.66;;;8.38;100.00
13594;BME280;6449;47.666;9.160;2024-02-28T03:41:38;96977.38;;;8.39;100.00
13594;BME280;6449;47.666;9.160;2024-02-28T03:46:31;96966.75;;;8.55;100.00
13594;BME280;6449;47.666;9.160;2024-02-28T03:51:27;96982.97;;;8.33;100.00
13594;BME280;6449;47.666;9.160;2024-02-28T03:56:25;96994.25;;;8.34;100.00
13594;BME280;6449;47.666;9.160;2024-02-28T04:01:20;96996.03;;;8.33;100.00
13594;BME280;6449;47.666;9.160;2024-02-28T04:06:13;96996.13;;;8.32;100.00
13594;BME280;6449;47.666;9.160;2024-02-28T04:11:07;97006.88;;;8.27;100.00
13594;BME280;6449;47.666;9.160;2024-02-28T04:16:02;97008.44;;;8.30;100.00
13594;BME280;6449;47.666;9.160;2024-02-28T04:20:57;97021.91;;;8.24;100.00
13594;BME280;6449;47.666;9.160;2024-02-28T04:25:52;97017.91;;;8.18;100.00
13594;BME280;6449;47.666;9.160;2024-02-28T04:30:45;97018.13;;;8.15;100.00
13594;BME280;6449;47.666;9.160;2024-02-28T04:35:38;97028.25;;;8.20;100.00
13594;BME280;6449;47.666;9.160;2024-02-28T04:40:33;97033.19;;;8.24;100.00
13594;BME280;6449;47.666;9.160;2024-02-28T04:45:28;97036.75;;;8.23;100.00
13594;BME280;6449;47.666;9.160;2024-02-28T04:50:21;97047.06;;;8.25;100.00
13594;BME280;6449;47.666;9.160;2024-02-28T04:55:15;97034.84;;;8.25;100.00
13594;BME280;6449;47.666;9.160;2024-02-28T05:00:11;97047.38;;;8.20;100.00
13594;BME280;6449;47.666;9.160;2024-02-28T05:05:06;97061.38;;;8.19;100.00
13594;BME280;6449;47.666;9.160;2024-02-28T05:09:59;97066.16;;;8.12;100.00
13594;BME280;6449;47.666;9.160;2024-02-28T05:14:53;97060.97;;;8.25;100.00
13594;BME280;6449;47.666;9.160;2024-02-28T05:19:48;97069.31;;;8.18;100.00
13594;BME280;6449;47.666;9.160;2024-02-28T05:24:41;97085.16;;;8.14;100.00
13594;BME280;6449;47.666;9.160;2024-02-28T05:29:35;97089.75;;;8.11;100.00
13594;BME280;6449;47.666;9.160;2024-02-28T05:34:29;97094.59;;;8.03;100.00
13594;BME280;6449;47.666;9.160;2024-02-28T05:39:23;97093.47;;;8.07;100.00
13594;BME280;6449;47.666;9.160;2024-02-28T05:44:17;97105.97;;;8.02;100.00
13594;BME280;6449;47.666;9.160;2024-02-28T05:49:10;97114.81;;;8.13;100.00
13594;BME280;6449;47.666;9.160;2024-02-28T05:54:04;97123.53;;;8.00;100.00
13594;BME280;6449;47.666;9.160;2024-02-28T05:58:58;97129.47;;;8.02;100.00
13594;BME280;6449;47.666;9.160;2024-02-28T06:03:52;97134.53;;;7.91;100.00
13594;BME280;6449;47.666;9.160;2024-02-28T06:08:45;97140.59;;;7.91;100.00
13594;BME280;6449;47.666;9.160;2024-02-28T06:13:40;97159.34;;;7.83;100.00
13594;BME280;6449;47.666;9.160;2024-02-28T06:18:35;97160.63;;;7.76;100.00
13594;BME280;6449;47.666;9.160;2024-02-28T06:23:29;97174.06;;;7.84;100.00
13594;BME280;6449;47.666;9.160;2024-02-28T06:28:22;97172.72;;;7.77;100.00
13594;BME280;6449;47.666;9.160;2024-02-28T06:33:15;97187.09;;;7.84;100.00
13594;BME280;6449;47.666;9.160;2024-02-28T06:38:10;97190.06;;;7.93;100.00
13594;BME280;6449;47.666;9.160;2024-02-28T06:43:04;97193.81;;;7.74;100.00
13594;BME280;6449;47.666;9.160;2024-02-28T06:47:58;97207.38;;;7.65;100.00
13594;BME280;6449;47.666;9.160;2024-02-28T06:52:51;97214.28;;;7.66;100.00
13594;BME280;6449;47.666;9.160;2024-02-28T06:57:47;97227.44;;;7.65;100.00
13594;BME280;6449;47.666;9.160;2024-02-28T07:02:41;97221.38;;;7.64;100.00
13594;BME280;6449;47.666;9.160;2024-02-28T07:07:34;97223.88;;;7.66;100.00
13594;BME280;6449;47.666;9.160;2024-02-28T07:12:27;97233.13;;;7.71;100.00
13594;BME280;6449;47.666;9.160;2024-02-28T07:17:22;97237.50;;;7.71;100.00
13594;BME280;6449;47.666;9.160;2024-02-28T07:22:17;97240.31;;;7.68;100.00
13594;BME280;6449;47.666;9.160;2024-02-28T07:27:10;97239.72;;;7.63;100.00
13594;BME280;6449;47.666;9.160;2024-02-28T07:32:04;97240.63;;;7.61;100.00
13594;BME280;6449;47.666;9.160;2024-02-28T07:36:59;97245.84;;;7.61;100.00
13594;BME280;6449;47.666;9.160;2024-02-28T07:41:52;97243.38;;;7.74;100.00
13594;BME280;6449;47.666;9.160;2024-02-28T07:46:47;97244.19;;;7.60;100.00
13594;BME280;6449;47.666;9.160;2024-02-28T07:51:43;97257.44;;;7.57;100.00
13594;BME280;6449;47.666;9.160;2024-02-28T07:56:38;97249.25;;;7.64;100.00
13594;BME280;6449;47.666;9.160;2024-02-28T08:01:32;97252.63;;;7.80;100.00
13594;BME280;6449;47.666;9.160;2024-02-28T08:06:26;97259.63;;;7.79;100.00
13594;BME280;6449;47.666;9.160;2024-02-28T08:11:20;97259.91;;;7.89;100.00
13594;BME280;6449;47.666;9.160;2024-02-28T08:16:14;97265.88;;;7.91;100.00
13594;BME280;6449;47.666;9.160;2024-02-28T08:21:09;97268.78;;;8.01;100.00
13594;BME280;6449;47.666;9.160;2024-02-28T08:26:03;97271.25;;;7.88;100.00
13594;BME280;6449;47.666;9.160;2024-02-28T08:30:57;97282.56;;;7.88;100.00
13594;BME280;6449;47.666;9.160;2024-02-28T08:35:53;97281.28;;;7.96;100.00
13594;BME280;6449;47.666;9.160;2024-02-28T08:40:46;97268.69;;;8.02;100.00
13594;BME280;6449;47.666;9.160;2024-02-28T08:45:39;97275.84;;;7.99;100.00
13594;BME280;6449;47.666;9.160;2024-02-28T08:50:33;97283.25;;;8.06;100.00
13594;BME280;6449;47.666;9.160;2024-02-28T09:21:10;97307.69;;;8.20;100.00
13594;BME280;6449;47.666;9.160;2024-02-28T09:26:04;97307.81;;;8.32;100.00
13594;BME280;6449;47.666;9.160;2024-02-28T09:30:58;97309.44;;;8.49;100.00
13594;BME280;6449;47.666;9.160;2024-02-28T09:35:53;97310.94;;;8.53;100.00
13594;BME280;6449;47.666;9.160;2024-02-28T09:40:49;97310.72;;;8.71;100.00
13594;BME280;6449;47.666;9.160;2024-02-28T09:45:43;97303.44;;;8.61;100.00
13594;BME280;6449;47.666;9.160;2024-02-28T09:50:40;97316.44;;;8.63;100.00
13594;BME280;6449;47.666;9.160;2024-02-28T09:55:33;97313.72;;;8.64;100.00
13594;BME280;6449;47.666;9.160;2024-02-28T10:00:29;97316.97;;;8.82;100.00
13594;BME280;6449;47.666;9.160;2024-02-28T10:05:23;97314.44;;;8.81;100.00
13594;BME280;6449;47.666;9.160;2024-02-28T10:10:19;97322.63;;;8.89;100.00
13594;BME280;6449;47.666;9.160;2024-02-28T10:15:12;97327.41;;;8.97;100.00
13594;BME280;6449;47.666;9.160;2024-02-28T10:20:08;97329.03;;;8.85;100.00
13594;BME280;6449;47.666;9.160;2024-02-28T10:25:02;97330.75;;;8.99;100.00
13594;BME280;6449;47.666;9.160;2024-02-28T10:29:56;97338.81;;;8.96;100.00
13594;BME280;6449;47.666;9.160;2024-02-28T10:34:49;97330.97;;;8.96;100.00
13594;BME280;6449;47.666;9.160;2024-02-28T10:39:47;97334.47;;;9.09;100.00
13594;BME280;6449;47.666;9.160;2024-02-28T10:44:42;97331.63;;;9.26;100.00
13594;BME280;6449;47.666;9.160;2024-02-28T10:49:36;97328.47;;;9.21;100.00
13594;BME280;6449;47.666;9.160;2024-02-28T10:54:31;97322.91;;;9.40;100.00
13594;BME280;6449;47.666;9.160;2024-02-28T10:59:29;97332.81;;;9.49;100.00
13594;BME280;6449;47.666;9.160;2024-02-28T11:04:25;97334.22;;;9.40;100.00
13594;BME280;6449;47.666;9.160;2024-02-28T11:09:22;97328.66;;;9.32;100.00
13594;BME280;6449;47.666;9.160;2024-02-28T11:14:17;97329.00;;;9.26;100.00
13594;BME280;6449;47.666;9.160;2024-02-28T11:19:23;97333.97;;;9.31;100.00
13594;BME280;6449;47.666;9.160;2024-02-28T11:24:16;97328.47;;;9.21;100.00
13594;BME280;6449;47.666;9.160;2024-02-28T11:29:13;97324.34;;;9.31;100.00
13594;BME280;6449;47.666;9.160;2024-02-28T11:34:06;97323.06;;;9.51;100.00
13594;BME280;6449;47.666;9.160;2024-02-28T11:39:01;97310.25;;;9.74;100.00
13594;BME280;6449;47.666;9.160;2024-02-28T11:43:55;97312.38;;;9.81;100.00
13594;BME280;6449;47.666;9.160;2024-02-28T11:48:48;97311.44;;;9.82;100.00
13594;BME280;6449;47.666;9.160;2024-02-28T11:53:42;97301.53;;;10.13;100.00
13594;BME280;6449;47.666;9.160;2024-02-28T11:58:36;97311.06;;;10.14;100.00
13594;BME280;6449;47.666;9.160;2024-02-28T12:03:30;97301.88;;;10.34;100.00
13594;BME280;6449;47.666;9.160;2024-02-28T12:08:23;97299.03;;;10.24;100.00
13594;BME280;6449;47.666;9.160;2024-02-28T12:13:23;97302.91;;;10.31;100.00
13594;BME280;6449;47.666;9.160;2024-02-28T12:18:18;97308.84;;;10.08;100.00
13594;BME280;6449;47.666;9.160;2024-02-28T12:23:12;97304.75;;;10.04;100.00
13594;BME280;6449;47.666;9.160;2024-02-28T12:28:05;97303.28;;;10.00;100.00
13594;BME280;6449;47.666;9.160;2024-02-28T12:32:59;97301.72;;;10.10;100.00
13594;BME280;6449;47.666;9.160;2024-02-28T12:37:54;97297.63;;;10.06;100.00
13594;BME280;6449;47.666;9.160;2024-02-28T12:42:47;97298.78;;;10.02;100.00
13594;BME280;6449;47.666;9.160;2024-02-28T12:47:41;97306.78;;;10.13;100.00
13594;BME280;6449;47.666;9.160;2024-02-28T12:52:34;97297.72;;;10.17;100.00
13594;BME280;6449;47.666;9.160;2024-02-28T12:57:29;97302.31;;;10.01;100.00
13594;BME280;6449;47.666;9.160;2024-02-28T13:02:23;97303.16;;;9.88;100.00
13594;BME280;6449;47.666;9.160;2024-02-28T13:07:16;97303.16;;;9.88;100.00
13594;BME280;6449;47.666;9.160;2024-02-28T13:12:11;97297.59;;;9.80;100.00
13594;BME280;6449;47.666;9.160;2024-02-28T13:17:06;97303.59;;;9.95;100.00
13594;BME280;6449;47.666;9.160;2024-02-28T13:21:59;97300.88;;;10.09;100.00
13594;BME280;6449;47.666;9.160;2024-02-28T13:26:53;97305.06;;;9.99;100.00
13594;BME280;6449;47.666;9.160;2024-02-28T13:31:46;97309.66;;;9.83;100.00
13594;BME280;6449;47.666;9.160;2024-02-28T13:36:41;97311.06;;;9.74;100.00
13594;BME280;6449;47.666;9.160;2024-02-28T13:41:35;97307.31;;;9.78;100.00
13594;BME280;6449;47.666;9.160;2024-02-28T13:46:29;97291.75;;;9.89;100.00
13594;BME280;6449;47.666;9.160;2024-02-28T13:51:22;97289.34;;;9.99;100.00
13594;BME280;6449;47.666;9.160;2024-02-28T13:56:17;97293.09;;;9.95;100.00
13594;BME280;6449;47.666;9.160;2024-02-28T14:01:11;97298.47;;;9.93;100.00
13594;BME280;6449;47.666;9.160;2024-02-28T14:06:04;97297.31;;;9.97;100.00
13594;BME280;6449;47.666;9.160;2024-02-28T14:10:58;97301.53;;;10.13;100.00
13594;BME280;6449;47.666;9.160;2024-02-28T14:15:53;97302.56;;;10.10;100.00
13594;BME280;6449;47.666;9.160;2024-02-28T14:20:47;97307.75;;;10.25;100.00
13594;BME280;6449;47.666;9.160;2024-02-28T14:25:40;97307.06;;;10.21;100.00
13594;BME280;6449;47.666;9.160;2024-02-28T14:30:34;97312.44;;;10.19;100.00
13594;BME280;6449;47.666;9.160;2024-02-28T14:35:29;97314.63;;;10.13;100.00
13594;BME280;6449;47.666;9.160;2024-02-28T14:40:22;97309.31;;;10.27;100.00
13594;BME280;6449;47.666;9.160;2024-02-28T14:45:16;97307.44;;;10.29;100.00
13594;BME280;6449;47.666;9.160;2024-02-28T14:50:11;97317.28;;;10.26;100.00
13594;BME280;6449;47.666;9.160;2024-02-28T14:55:09;97324.88;;;10.16;100.00
13594;BME280;6449;47.666;9.160;2024-02-28T15:00:03;97321.31;;;10.17;100.00
13594;BME280;6449;47.666;9.160;2024-02-28T15:05:00;97318.59;;;10.06;100.00
13594;BME280;6449;47.666;9.160;2024-02-28T15:09:57;97317.78;;;10.18;100.00
13594;BME280;6449;47.666;9.160;2024-02-28T15:14:53;97317.66;;;10.07;100.00
13594;BME280;6449;47.666;9.160;2024-02-28T15:19:47;97311.56;;;10.06;100.00
13594;BME280;6449;47.666;9.160;2024-02-28T15:24:40;97316.72;;;10.08;100.00
13594;BME280;6449;47.666;9.160;2024-02-28T15:29:34;97322.38;;;10.02;100.00
13594;BME280;6449;47.666;9.160;2024-02-28T15:34:31;97322.13;;;9.92;100.00
13594;BME280;6449;47.666;9.160;2024-02-28T15:39:25;97312.81;;;10.01;100.00
13594;BME280;6449;47.666;9.160;2024-02-28T15:44:18;97317.81;;;9.78;100.00
13594;BME280;6449;47.666;9.160;2024-02-28T15:49:11;97325.75;;;9.77;100.00
13594;BME280;6449;47.666;9.160;2024-02-28T15:54:10;97322.00;;;9.81;100.00
13594;BME280;6449;47.666;9.160;2024-02-28T15:59:03;97312.59;;;9.91;100.00
13594;BME280;6449;47.666;9.160;2024-02-28T16:03:58;97319.81;;;9.87;100.00
13594;BME280;6449;47.666;9.160;2024-02-28T16:08:52;97323.88;;;9.79;100.00
13594;BME280;6449;47.666;9.160;2024-02-28T16:13:47;97321.88;;;9.69;100.00
13594;BME280;6449;47.666;9.160;2024-02-28T16:18:40;97326.56;;;9.64;100.00
13594;BME280;6449;47.666;9.160;2024-02-28T16:23:34;97329.28;;;9.63;100.00
13594;BME280;6449;47.666;9.160;2024-02-28T16:28:28;97331.34;;;9.58;100.00
13594;BME280;6449;47.666;9.160;2024-02-28T16:33:24;97338.03;;;9.49;100.00
13594;BME280;6449;47.666;9.160;2024-02-28T16:38:18;97339.25;;;9.43;100.00
13594;BME280;6449;47.666;9.160;2024-02-28T16:43:11;97334.25;;;9.53;100.00
13594;BME280;6449;47.666;9.160;2024-02-28T16:48:06;97339.44;;;9.40;100.00
13594;BME280;6449;47.666;9.160;2024-02-28T16:53:02;97346.03;;;9.33;100.00
13594;BME280;6449;47.666;9.160;2024-02-28T16:57:56;97350.50;;;9.31;100.00
13594;BME280;6449;47.666;9.160;2024-02-28T17:02:51;97345.47;;;9.28;100.00
13594;BME280;6449;47.666;9.160;2024-02-28T17:07:44;97344.53;;;9.29;100.00
13594;BME280;6449;47.666;9.160;2024-02-28T17:12:39;97349.22;;;9.24;100.00
13594;BME280;6449;47.666;9.160;2024-02-28T17:17:32;97353.41;;;9.27;100.00
13594;BME280;6449;47.666;9.160;2024-02-28T17:22:27;97359.28;;;9.30;100.00
13594;BME280;6449;47.666;9.160;2024-02-28T17:27:20;97360.78;;;9.34;100.00
13594;BME280;6449;47.666;9.160;2024-02-28T17:32:15;97362.34;;;9.37;100.00
13594;BME280;6449;47.666;9.160;2024-02-28T17:37:09;97370.50;;;9.32;100.00
13594;BME280;6449;47.666;9.160;2024-02-28T17:42:03;97376.47;;;9.34;100.00
13594;BME280;6449;47.666;9.160;2024-02-28T17:46:57;97373.28;;;9.43;100.00
13594;BME280;6449;47.666;9.160;2024-02-28T17:51:52;97369.09;;;9.27;100.00
13594;BME280;6449;47.666;9.160;2024-02-28T17:56:46;97371.25;;;9.34;100.00
13594;BME280;6449;47.666;9.160;2024-02-28T18:01:41;97369.31;;;9.24;100.00
13594;BME280;6449;47.666;9.160;2024-02-28T18:06:36;97369.69;;;9.17;100.00
13594;BME280;6449;47.666;9.160;2024-02-28T18:11:31;97365.69;;;9.12;100.00
13594;BME280;6449;47.666;9.160;2024-02-28T18:16:25;97368.59;;;9.07;100.00
13594;BME280;6449;47.666;9.160;2024-02-28T18:21:18;97369.81;;;9.02;100.00
13594;BME280;6449;47.666;9.160;2024-02-28T18:26:12;97377.44;;;9.05;100.00
13594;BME280;6449;47.666;9.160;2024-02-28T18:31:10;97374.19;;;9.01;100.00
13594;BME280;6449;47.666;9.160;2024-02-28T18:36:04;97378.50;;;9.02;100.00
13594;BME280;6449;47.666;9.160;2024-02-28T18:40:57;97379.31;;;9.03;100.00
13594;BME280;6449;47.666;9.160;2024-02-28T18:45:52;97382.50;;;9.08;100.00
13594;BME280;6449;47.666;9.160;2024-02-28T18:50:47;97378.50;;;9.02;100.00
13594;BME280;6449;47.666;9.160;2024-02-28T18:55:41;97374.00;;;9.04;100.00
13594;BME280;6449;47.666;9.160;2024-02-28T19:00:35;97369.97;;;8.99;100.00
13594;BME280;6449;47.666;9.160;2024-02-28T19:05:28;97375.97;;;9.01;100.00
13594;BME280;6449;47.666;9.160;2024-02-28T19:10:23;97377.28;;;9.08;100.00
13594;BME280;6449;47.666;9.160;2024-02-28T19:15:17;97372.53;;;9.00;100.00
13594;BME280;6449;47.666;9.160;2024-02-28T19:20:12;97382.88;;;9.02;100.00
13594;BME280;6449;47.666;9.160;2024-02-28T19:25:06;97379.53;;;8.85;100.00
13594;BME280;6449;47.666;9.160;2024-02-28T19:30:02;97375.31;;;8.83;100.00
13594;BME280;6449;47.666;9.160;2024-02-28T19:34:57;97372.81;;;8.81;100.00
13594;BME280;6449;47.666;9.160;2024-02-28T19:39:50;97381.47;;;8.82;100.00
13594;BME280;6449;47.666;9.160;2024-02-28T19:44:49;97375.59;;;8.78;100.00
13594;BME280;6449;47.666;9.160;2024-02-28T19:49:43;97376.44;;;8.79;100.00
13594;BME280;6449;47.666;9.160;2024-02-28T19:54:37;97376.34;;;8.80;100.00
13594;BME280;6449;47.666;9.160;2024-02-28T19:59:30;97376.34;;;8.80;100.00
13594;BME280;6449;47.666;9.160;2024-02-28T20:04:24;97379.03;;;8.79;100.00
13594;BME280;6449;47.666;9.160;2024-02-28T20:09:19;97379.91;;;8.79;100.00
13594;BME280;6449;47.666;9.160;2024-02-28T20:14:12;97372.34;;;8.75;100.00
13594;BME280;6449;47.666;9.160;2024-02-28T20:19:06;97373.91;;;8.77;100.00
13594;BME280;6449;47.666;9.160;2024-02-28T20:23:59;97373.47;;;8.71;100.00
13594;BME280;6449;47.666;9.160;2024-02-28T20:28:54;97375.59;;;8.78;100.00
13594;BME280;6449;47.666;9.160;2024-02-28T20:33:48;97373.19;;;8.75;100.00
13594;BME280;6449;47.666;9.160;2024-02-28T20:38:42;97369.53;;;8.78;100.00
13594;BME280;6449;47.666;9.160;2024-02-28T20:43:38;97367.50;;;8.69;100.00
13594;BME280;6449;47.666;9.160;2024-02-28T20:48:34;97376.16;;;8.55;100.00
13594;BME280;6449;47.666;9.160;2024-02-28T20:53:28;97372.22;;;8.62;100.00
13594;BME280;6449;47.666;9.160;2024-02-28T20:58:25;97375.78;;;8.61;100.00
13594;BME280;6449;47.666;9.160;2024-02-28T21:03:22;97371.94;;;8.66;100.00
13594;BME280;6449;47.666;9.160;2024-02-28T21:08:17;97368.13;;;8.58;100.00
13594;BME280;6449;47.666;9.160;2024-02-28T21:13:11;97369.34;;;8.52;100.00
13594;BME280;6449;47.666;9.160;2024-02-28T21:18:05;97365.06;;;8.65;100.00
13594;BME280;6449;47.666;9.160;2024-02-28T21:22:59;97361.97;;;8.59;100.00
13594;BME280;6449;47.666;9.160;2024-02-28T21:27:54;97366.81;;;8.65;100.00
13594;BME280;6449;47.666;9.160;2024-02-28T21:32:47;97360.94;;;8.61;100.00
13594;BME280;6449;47.666;9.160;2024-02-28T21:37:43;97354.41;;;8.54;100.00
13594;BME280;6449;47.666;9.160;2024-02-28T21:42:44;97348.72;;;8.48;100.00
13594;BME280;6449;47.666;9.160;2024-02-28T21:47:41;97348.31;;;8.39;100.00
13594;BME280;6449;47.666;9.160;2024-02-28T21:52:35;97344.78;;;8.40;100.00
13594;BME280;6449;47.666;9.160;2024-02-28T21:57:28;97345.03;;;8.36;100.00
13594;BME280;6449;47.666;9.160;2024-02-28T22:02:25;97338.06;;;8.51;100.00
13594;BME280;6449;47.666;9.160;2024-02-28T22:07:25;97333.00;;;8.33;100.00
13594;BME280;6449;47.666;9.160;2024-02-28T22:12:19;97335.09;;;8.43;100.00
13594;BME280;6449;47.666;9.160;2024-02-28T22:17:15;97326.22;;;8.45;100.00
13594;BME280;6449;47.666;9.160;2024-02-28T22:22:08;97324.06;;;8.37;100.00
13594;BME280;6449;47.666;9.160;2024-02-28T22:27:05;97324.72;;;8.41;100.00
13594;BME280;6449;47.666;9.160;2024-02-28T22:31:59;97312.00;;;8.21;100.00
13594;BME280;6449;47.666;9.160;2024-02-28T22:36:53;97310.88;;;8.10;100.00
13594;BME280;6449;47.666;9.160;2024-02-28T22:41:46;97314.69;;;8.05;100.00
13594;BME280;6449;47.666;9.160;2024-02-28T22:46:41;97313.63;;;8.07;100.00
13594;BME280;6449;47.666;9.160;2024-02-28T22:51:34;97323.13;;;7.94;100.00
13594;BME280;6449;47.666;9.160;2024-02-28T22:56:28;97315.38;;;7.93;100.00
13594;BME280;6449;47.666;9.160;2024-02-28T23:01:21;97315.56;;;7.90;100.00
13594;BME280;6449;47.666;9.160;2024-02-28T23:06:17;97311.75;;;7.95;100.00
13594;BME280;6449;47.666;9.160;2024-02-28T23:11:11;97308.22;;;7.96;100.00
13594;BME280;6449;47.666;9.160;2024-02-28T23:16:05;97306.72;;;7.92;100.00
13594;BME280;6449;47.666;9.160;2024-02-28T23:21:00;97299.53;;;7.96;100.00
13594;BME280;6449;47.666;9.160;2024-02-28T23:25:54;97289.63;;;7.86;100.00
13594;BME280;6449;47.666;9.160;2024-02-28T23:30:50;97290.69;;;7.84;100.00
13594;BME280;6449;47.666;9.160;2024-02-28T23:35:44;97282.38;;;7.92;100.00
13594;BME280;6449;47.666;9.160;2024-02-28T23:40:37;97274.44;;;7.93;100.00
13594;BME280;6449;47.666;9.160;2024-02-28T23:45:32;97272.47;;;7.82;100.00
13594;BME280;6449;47.666;9.160;2024-02-28T23:50:25;97270.22;;;7.76;100.00
13594;BME280;6449;47.666;9.160;2024-02-28T23:55:19;97266.66;;;7.63;100.00
